Flight Track Log - Related Links

Times and Time Zones

All times are in EDT time to prevent confusion due to time zone crossing. See the LOF9510 flight status page for this flight to view local times or setup timezone preferences in your user account.

Time Position Orientation Groundspeed Altitude Reporting Facility
EDT Latitude Longitude Course Direction KTS MPH feet Rate Location/Type
Mon 11:10:58 PM 39.8997 -84.2039 56° Northeast 152 175 1,400  Level Indianapolis Center
Mon 11:11:56 PM 39.9253 -84.1553 56° Northeast 191 220 3,800 2,824 Climbing Indianapolis Center
Mon 11:12:57 PM 39.9592 -84.0942 54° Northeast 203 234 7,000 2,976 Climbing Indianapolis Center
Mon 11:13:59 PM 39.9808 -84.0181 70° East 230 265 9,900 1,951 Climbing Indianapolis Center
Mon 11:15:00 PM 39.9033 -83.9481 145° Southeast 295 339 11,000 1,230 Climbing Indianapolis Center
Mon 11:16:01 PM 39.8128 -83.8964 156° South 343 395 12,400 1,426 Climbing Indianapolis Center
Mon 11:17:02 PM 39.7172 -83.8442 157° South 367 422 13,900 1,415 Climbing Indianapolis Center
Mon 11:18:04 PM 39.6197 -83.7908 157° South 380 437 15,300 1,415 Climbing Indianapolis Center
Mon 11:19:05 PM 39.5219 -83.7364 157° South 382 440 16,800 1,377 Climbing Indianapolis Center
Mon 11:20:06 PM 39.4231 -83.6839 158° South 383 441 18,100 1,377 Climbing Indianapolis Center
Mon 11:21:07 PM 39.3231 -83.6286 157° South 387 445 19,600 1,623 Climbing Indianapolis Center
Mon 11:22:08 PM 39.2003 -83.5631 158° South 394 453 21,400 1,623 Climbing Indianapolis Center
Mon 11:23:09 PM 39.0950 -83.5058 157° South 406 467 22,900 1,463 Climbing Indianapolis Center
Mon 11:24:11 PM 38.9892 -83.4494 158° South 407 468 24,400 1,512 Climbing Indianapolis Center
Mon 11:25:12 PM 38.8828 -83.3922 157° South 411 473 26,000 1,525 Climbing Indianapolis Center
Mon 11:26:13 PM 38.7764 -83.3353 157° South 411 473 27,500 1,475 Climbing Indianapolis Center
Mon 11:27:14 PM 38.6683 -83.2786 158° South 416 479 29,000 1,525 Climbing Indianapolis Center
Mon 11:28:15 PM 38.5533 -83.2167 157° South 416 479 30,600 1,426 Climbing Indianapolis Center
Mon 11:29:16 PM 38.4444 -83.1575 157° South 421 484 31,900 1,131 Climbing Indianapolis Center
Mon 11:30:17 PM 38.3319 -83.1000 158° South 426 490 32,900 541 Climbing Indianapolis Center
Mon 11:31:18 PM 38.2150 -83.0386 158° South 445 512 33,000 49 Climbing Indianapolis Center
Mon 11:32:19 PM 38.0972 -82.9764 157° South 452 520 33,000  Level Indianapolis Center
Mon 11:33:20 PM 37.9786 -82.9150 158° South 456 525 33,000  Level Indianapolis Center
Mon 11:34:22 PM 37.8614 -82.8544 158° South 456 525 33,000  Level Indianapolis Center
Mon 11:35:23 PM 37.7461 -82.7936 157° South 453 521 33,000  Level Indianapolis Center
Mon 11:36:24 PM 37.6322 -82.7367 158° South 444 511 33,000  Level Indianapolis Center
Mon 11:37:25 PM 37.4978 -82.6661 157° South 444 511 33,000  Level Indianapolis Center
Mon 11:38:26 PM 37.3800 -82.6072 158° South 446 513 33,000 -443 Level Indianapolis Center
Mon 11:39:27 PM 37.2636 -82.5458 157° South 447 514 32,100 -1,180 Descending Indianapolis Center
Mon 11:40:28 PM 37.1450 -82.4856 158° South 449 517 30,600 -1,525 Descending Indianapolis Center
Mon 11:41:29 PM 37.0253 -82.4264 158° South 452 520 29,000 -1,279 Descending Indianapolis Center
Mon 11:42:30 PM 36.8950 -82.4083 174° South 462 532 28,000 -836 Descending Indianapolis Center
Mon 11:43:31 PM 36.7650 -82.3953 175° South 464 534 27,300 -885 Descending Indianapolis Center
Mon 11:44:32 PM 36.6353 -82.3822 175° South 464 534 26,200 -1,082 Descending Indianapolis Center
Mon 11:45:33 PM 36.5047 -82.3708 176° South 464 534 25,100 -1,475 Descending Indianapolis Center
Mon 11:46:34 PM 36.3772 -82.3569 175° South 463 533 23,200 -1,918 Descending Indianapolis Center
Mon 11:47:35 PM 36.2533 -82.3469 176° South 451 519 21,200 -1,869 Descending Indianapolis Center
Mon 11:48:36 PM 36.1333 -82.3353 176° South 436 502 19,400 -1,574 Descending Indianapolis Center
Mon 11:49:37 PM 36.0197 -82.3236 175° South 417 480 18,000 -1,366 Descending Indianapolis Center
Mon 11:50:39 PM 35.9058 -82.3139 176° South 410 472 16,600 -1,545 Descending Indianapolis Center
Mon 11:51:49 PM 35.7936 -82.3056 177° South 361 415 14,600 -1,800 Descending Atlanta Center
Mon 11:52:49 PM 35.7017 -82.2972 176° South 310 357 12,700 -1,700 Descending Atlanta Center
Mon 11:53:49 PM 35.6222 -82.2886 175° South 298 343 11,200 -1,500 Descending Atlanta Center
Mon 11:54:49 PM 35.5431 -82.2803 175° South 293 337 9,700 -1,000 Descending Atlanta Center
Mon 11:55:49 PM 35.4656 -82.2742 176° South 293 337 9,200 -300 Descending Atlanta Center
Mon 11:56:49 PM 35.3906 -82.2681 176° South 293 337 9,100 -150 Descending Atlanta Center
Mon 11:57:49 PM 35.3131 -82.2597 175° South 288 331 8,900 -900 Descending Atlanta Center
Mon 11:58:49 PM 35.2381 -82.2536 176° South 288 331 7,300 -950 Descending Atlanta Center
Mon 11:59:49 PM 35.1628 -82.2478 176° South 283 326 7,000 -150 Descending Atlanta Center
Tue 12:00:49 AM 35.0878 -82.2619 189° South 271 312 7,000  Level Atlanta Center
Tue 12:01:49 AM 35.0194 -82.2964 202° Southwest 271 312 7,000  Level Atlanta Center
Tue 12:02:49 AM 34.9492 -82.3358 205° Southwest 276 318 7,000  Level Atlanta Center
Tue 12:03:49 AM 34.8786 -82.3728 203° Southwest 276 318 7,000  Level Atlanta Center
Tue 12:04:49 AM 34.8144 -82.4019 200° South 270 311 7,000 -450 Level Atlanta Center
Tue 12:05:49 AM 34.7647 -82.4331 207° Southwest 237 273 6,100 -1,350 Descending Atlanta Center
Tue 12:06:49 AM 34.7106 -82.4544 198° South 216 249 4,300 -1,200 Descending Atlanta Center
Tue 12:07:49 AM 34.6583 -82.4453 172° South 199 229 3,700 -300 Descending Atlanta Center
Tue 12:08:49 AM 34.6681 -82.3869 79° East 106 122 3,700  Level Atlanta Center
Tue 12:09:49 AM 34.7197 -82.3531 28° Northeast 137 158 3,700 -150 Level Atlanta Center
Tue 12:10:49 AM 34.7694 -82.3167 31° Northeast 165 190 3,400 -650 Descending Atlanta Center
Tue 12:11:49 AM 34.8169 -82.2803 32° Northeast 181 208 2,400 -800 Descending Atlanta Center
Tue 12:12:49 AM 34.8436 -82.2622 29° Northeast 179 206 1,800 650 Descending Atlanta Center
Tue 12:13:49 AM 34.8911 -82.2206 36° Northeast 179 206 3,700 950 Climbing Atlanta Center
Tue 12:14:49 AM 34.9322 -82.1892 32° Northeast 179 206 3,700  Level Atlanta Center
Tue 12:15:49 AM 34.9653 -82.1631 33° Northeast 179 206 3,700  Level Atlanta Center

Login

Don't have an account? Register now (free) for customized features, flight alerts, and more!